Time;durP1;ratioP1;P1;durP2;ratioP2;P2;SDS_P1;SDS_P2;PMS_P1;PMS_P2;Temp;Humidity;BMP_temperature;BMP_pressure;BME280_temperature;BME280_humidity;BME280_pressure;Samples;Min_cycle;Max_cycle;Signal;HPM_P1;HPM_P2
2020/12/04 00:02:10;;;;;;;25.68;12.73;;;;;;;5.03;62.04;101571.47;1785640;80;21513;-77
2020/12/04 00:04:38;;;;;;;27.07;13.15;;;;;;;4.98;62.06;101575.73;1785721;80;21069;-77
2020/12/04 00:07:07;;;;;;;25.27;12.30;;;;;;;4.95;62.10;101581.70;1785761;80;21779;-77
2020/12/04 00:09:35;;;;;;;28.67;14.10;;;;;;;4.90;62.17;101581.98;1784366;80;21124;-78
2020/12/04 00:12:03;;;;;;;20.65;10.20;;;;;;;4.90;62.25;101578.00;1785777;80;21586;-77
2020/12/04 00:14:30;;;;;;;29.80;12.53;;;;;;;4.88;62.24;101578.58;1785712;80;21218;-77
2020/12/04 00:16:58;;;;;;;29.87;12.73;;;;;;;4.85;62.26;101581.41;1785620;80;21132;-77
2020/12/04 00:19:26;;;;;;;28.70;13.43;;;;;;;4.75;62.38;101580.27;1785656;79;22689;-78
2020/12/04 00:21:53;;;;;;;28.73;14.73;;;;;;;4.68;62.54;101584.23;1785652;80;21139;-78
2020/12/04 00:24:21;;;;;;;27.85;13.58;;;;;;;4.69;62.68;101580.66;1785418;80;21104;-78
2020/12/04 00:26:49;;;;;;;28.20;12.20;;;;;;;4.69;62.80;101578.00;1784129;80;21148;-77
2020/12/04 00:29:17;;;;;;;28.85;13.65;;;;;;;4.67;62.88;101579.88;1757177;80;21056;-77
2020/12/04 00:31:45;;;;;;;24.27;11.80;;;;;;;4.64;62.93;101579.61;1785421;80;21432;-77
2020/12/04 00:34:13;;;;;;;27.30;12.40;;;;;;;4.62;63.00;101580.16;1757559;80;21140;-77
2020/12/04 00:36:47;;;;;;;30.10;14.85;;;;;;;4.64;62.98;101572.97;1785595;80;21172;-77
2020/12/04 00:39:15;;;;;;;27.40;12.98;;;;;;;4.67;62.94;101571.44;1784651;80;21139;-77
2020/12/04 00:41:43;;;;;;;22.90;11.90;;;;;;;4.69;62.86;101585.97;1785733;80;21180;-76
2020/12/04 00:44:12;;;;;;;26.30;13.62;;;;;;;4.67;62.87;101589.17;1785773;80;21332;-76
2020/12/04 00:46:40;;;;;;;24.40;12.55;;;;;;;4.64;62.78;101585.39;1785758;80;21625;-76
2020/12/04 00:49:08;;;;;;;19.48;10.65;;;;;;;4.66;62.89;101588.31;1785750;80;21053;-76
2020/12/04 00:51:37;;;;;;;29.15;15.13;;;;;;;4.70;62.84;101600.94;1785648;80;21089;-76
2020/12/04 00:54:05;;;;;;;26.90;13.90;;;;;;;4.69;62.78;101595.25;1785769;80;21056;-77
2020/12/04 00:56:34;;;;;;;29.00;13.62;;;;;;;4.69;62.82;101595.25;1785830;80;21367;-76
2020/12/04 00:59:03;;;;;;;30.52;14.10;;;;;;;4.74;62.83;101595.83;1784770;80;21132;-77
2020/12/04 01:01:32;;;;;;;31.95;14.78;;;;;;;4.70;62.79;101591.64;1785648;80;21551;-78
2020/12/04 01:03:59;;;;;;;25.85;12.75;;;;;;;4.62;62.92;101593.42;1784776;80;21643;-76
2020/12/04 01:06:27;;;;;;;27.75;13.65;;;;;;;4.60;63.01;101589.17;1784654;80;21655;-77
2020/12/04 01:08:55;;;;;;;25.27;12.50;;;;;;;4.53;63.10;101590.84;1784951;80;21753;-77
2020/12/04 01:11:24;;;;;;;29.40;14.47;;;;;;;4.47;63.21;101585.91;1785150;80;21119;-76
2020/12/04 01:13:52;;;;;;;32.63;15.90;;;;;;;4.37;63.43;101580.78;1785489;80;21135;-79
2020/12/04 01:16:20;;;;;;;43.10;18.92;;;;;;;4.29;63.66;101575.92;1785843;80;21635;-75
2020/12/04 01:18:48;;;;;;;37.85;18.17;;;;;;;4.32;63.84;101573.09;1785627;79;21052;-75
2020/12/04 01:21:16;;;;;;;39.03;17.92;;;;;;;4.37;63.93;101576.80;1785736;80;21279;-79
2020/12/04 01:23:44;;;;;;;38.58;16.52;;;;;;;4.42;63.98;101570.75;1785845;80;21116;-78
2020/12/04 01:26:11;;;;;;;29.05;14.13;;;;;;;4.51;63.97;101582.14;1785909;80;21088;-79
2020/12/04 01:28:40;;;;;;;32.23;15.95;;;;;;;4.60;63.88;101581.21;1785873;80;21515;-76
2020/12/04 01:31:09;;;;;;;33.08;16.07;;;;;;;4.67;63.67;101570.59;1785890;79;21048;-78
2020/12/04 01:33:37;;;;;;;35.05;16.35;;;;;;;4.65;63.63;101572.50;1785811;80;21258;-77
2020/12/04 01:36:05;;;;;;;35.65;17.73;;;;;;;4.64;63.66;101572.13;1785802;80;21076;-77
2020/12/04 01:38:33;;;;;;;39.13;17.70;;;;;;;4.67;63.63;101577.23;1785849;80;21117;-77
2020/12/04 01:41:01;;;;;;;43.17;18.30;;;;;;;4.68;63.59;101578.48;1785694;80;21176;-77
2020/12/04 01:43:29;;;;;;;58.65;26.65;;;;;;;4.62;63.65;101575.33;1785819;80;21064;-77
2020/12/04 01:45:57;;;;;;;47.55;22.17;;;;;;;4.57;63.83;101584.89;1785811;80;21798;-77
2020/12/04 01:48:26;;;;;;;54.03;26.50;;;;;;;4.61;63.90;101585.09;1785785;80;21060;-77
2020/12/04 01:50:53;;;;;;;52.50;22.50;;;;;;;4.66;63.91;101580.83;1785738;80;21109;-77
2020/12/04 01:53:21;;;;;;;59.65;23.07;;;;;;;4.74;63.85;101583.88;1785869;80;21115;-76
2020/12/04 01:55:50;;;;;;;56.60;23.30;;;;;;;4.79;63.72;101577.34;1757476;80;21052;-77
2020/12/04 01:58:19;;;;;;;45.08;19.98;;;;;;;4.76;63.64;101584.62;1785836;80;21813;-77
2020/12/04 02:00:47;;;;;;;53.80;20.65;;;;;;;4.65;63.75;101580.45;1785144;79;21081;-78
2020/12/04 02:03:15;;;;;;;53.52;22.37;;;;;;;4.56;63.93;101585.36;1785813;80;21108;-78
2020/12/04 02:05:59;;;;;;;61.60;26.00;;;;;;;4.51;64.07;101581.29;1785828;80;21155;-78
2020/12/04 02:08:40;;;;;;;45.30;18.02;;;;;;;4.49;64.18;101581.36;1786021;80;21466;-76
2020/12/04 02:11:20;;;;;;;36.83;17.70;;;;;;;4.44;64.23;101582.58;1785702;80;21376;-76
2020/12/04 02:13:49;;;;;;;49.63;21.57;;;;;;;4.37;64.38;101582.11;1785801;79;21065;-78
2020/12/04 02:16:21;;;;;;;48.00;20.90;;;;;;;4.36;64.44;101592.34;1785767;80;21310;-78
2020/12/04 02:18:49;;;;;;;53.65;23.30;;;;;;;4.35;64.49;101587.95;1785872;80;21057;-79
2020/12/04 02:21:17;;;;;;;44.48;18.05;;;;;;;4.33;64.61;101584.56;1785870;80;21053;-78
2020/12/04 02:23:52;;;;;;;42.27;18.02;;;;;;;4.36;64.64;101579.08;1785738;80;21377;-77
2020/12/04 02:26:21;;;;;;;45.30;19.98;;;;;;;4.37;64.65;101588.73;1785759;80;21076;-77
2020/12/04 02:28:49;;;;;;;49.80;21.40;;;;;;;4.38;64.71;101585.14;1785801;79;21495;-78
2020/12/04 02:31:16;;;;;;;43.78;19.65;;;;;;;4.45;64.73;101580.30;1785725;80;21484;-78
2020/12/04 02:33:44;;;;;;;46.02;19.30;;;;;;;4.51;64.69;101584.80;1785784;80;21139;-78
2020/12/04 02:36:13;;;;;;;47.40;18.32;;;;;;;4.52;64.67;101585.16;1785796;80;22768;-76
2020/12/04 02:38:43;;;;;;;59.88;24.30;;;;;;;4.48;64.64;101582.78;1785662;80;21160;-78
2020/12/04 02:41:10;;;;;;;58.45;24.23;;;;;;;4.35;64.79;101577.83;1785695;80;21144;-79
2020/12/04 02:43:39;;;;;;;63.48;26.25;;;;;;;4.25;65.00;101566.91;1785751;80;21069;-79
2020/12/04 02:46:07;;;;;;;66.10;27.17;;;;;;;4.27;65.15;101566.33;1785766;80;21058;-79
2020/12/04 02:48:35;;;;;;;64.85;26.68;;;;;;;4.35;65.18;101570.72;1785710;80;21365;-78
2020/12/04 02:51:08;;;;;;;64.10;27.40;;;;;;;4.42;65.13;101570.75;1785730;80;21116;-78
2020/12/04 02:53:36;;;;;;;51.60;23.75;;;;;;;4.43;65.04;101567.14;1784901;79;21388;-79
2020/12/04 02:56:05;;;;;;;54.77;23.92;;;;;;;4.40;65.04;101561.16;1785752;80;21112;-79
2020/12/04 02:58:33;;;;;;;59.65;24.75;;;;;;;4.44;65.03;101563.54;1785072;80;21184;-78
2020/12/04 03:01:00;;;;;;;60.58;24.37;;;;;;;4.44;65.05;101567.52;1784359;80;21196;-79
2020/12/04 03:03:30;;;;;;;44.83;18.27;;;;;;;4.49;64.99;101569.42;1785079;79;21088;-78
2020/12/04 03:05:57;;;;;;;70.35;26.97;;;;;;;4.48;64.96;101566.39;1785778;80;21136;-78
2020/12/04 03:08:25;;;;;;;60.35;23.90;;;;;;;4.45;64.97;101563.95;1785873;80;21523;-78
2020/12/04 03:10:55;;;;;;;61.05;23.95;;;;;;;4.46;65.02;101552.86;1785816;80;21232;-78
2020/12/04 03:13:23;;;;;;;58.68;24.32;;;;;;;4.51;65.00;101558.73;1785746;80;21363;-79
2020/12/04 03:15:53;;;;;;;59.48;24.30;;;;;;;4.57;64.94;101549.92;1785057;80;21211;-78
2020/12/04 03:18:21;;;;;;;59.67;21.95;;;;;;;4.63;64.85;101558.45;1785863;80;21638;-76
2020/12/04 03:20:48;;;;;;;66.53;25.12;;;;;;;4.65;64.69;101564.53;1785749;80;21479;-76
2020/12/04 03:23:16;;;;;;;63.38;25.37;;;;;;;4.63;64.73;101566.41;1785662;79;21045;-77
2020/12/04 03:25:44;;;;;;;73.50;30.77;;;;;;;4.67;64.59;101575.90;1785323;80;21569;-77
2020/12/04 03:28:12;;;;;;;59.45;26.17;;;;;;;4.70;64.58;101578.38;1785729;80;21171;-76
2020/12/04 03:30:40;;;;;;;52.08;23.47;;;;;;;4.68;64.36;101570.52;1787814;79;21183;-76
2020/12/04 03:33:08;;;;;;;46.18;19.35;;;;;;;4.54;64.38;101568.70;1817423;79;21184;-77
2020/12/04 03:35:36;;;;;;;57.48;23.62;;;;;;;4.40;64.53;101577.92;1817918;79;21049;-78
2020/12/04 03:38:04;;;;;;;56.70;24.12;;;;;;;4.32;64.68;101579.73;1817223;79;21810;-78
2020/12/04 03:40:31;;;;;;;53.00;24.55;;;;;;;4.34;64.79;101579.63;1816505;78;21163;-76
2020/12/04 03:42:59;;;;;;;63.23;25.75;;;;;;;4.39;64.76;101573.58;1817335;78;21174;-78
2020/12/04 03:45:27;;;;;;;59.63;24.12;;;;;;;4.46;64.72;101570.95;1817760;79;21191;-77
2020/12/04 03:47:55;;;;;;;59.33;24.02;;;;;;;4.58;64.46;101569.34;1817905;79;21218;-77
2020/12/04 03:50:22;;;;;;;57.05;24.52;;;;;;;4.61;64.33;101573.63;1817851;79;21146;-78
2020/12/04 03:52:50;;;;;;;46.58;18.62;;;;;;;4.62;64.31;101575.33;1816707;79;21191;-76
2020/12/04 03:55:18;;;;;;;44.23;19.57;;;;;;;4.62;64.23;101574.00;1817755;78;21061;-78
2020/12/04 03:57:45;;;;;;;66.22;27.52;;;;;;;4.54;64.28;101572.68;1817942;78;21045;-77
2020/12/04 04:00:13;;;;;;;65.67;28.38;;;;;;;4.52;64.36;101572.37;1817989;79;21116;-78
2020/12/04 04:02:41;;;;;;;65.75;26.70;;;;;;;4.50;64.41;101574.28;1817874;78;21799;-77
2020/12/04 04:05:09;;;;;;;64.65;28.38;;;;;;;4.48;64.45;101577.00;1817806;79;21112;-77
2020/12/04 04:07:37;;;;;;;89.07;41.42;;;;;;;4.47;64.49;101580.61;1817957;79;21044;-77
2020/12/04 04:10:04;;;;;;;96.72;42.55;;;;;;;4.52;64.47;101580.33;1817924;79;21147;-79
2020/12/04 04:12:33;;;;;;;85.60;37.80;;;;;;;4.62;64.40;101581.95;1817843;79;21100;-76
2020/12/04 04:15:02;;;;;;;76.10;35.65;;;;;;;4.68;64.24;101578.92;1817019;78;21368;-77
2020/12/04 04:17:30;;;;;;;59.70;25.32;;;;;;;4.73;64.09;101578.20;1788109;79;21041;-76
2020/12/04 04:19:58;;;;;;;55.75;25.00;;;;;;;4.74;63.90;101585.20;1817279;79;21191;-76
2020/12/04 04:22:25;;;;;;;51.08;24.85;;;;;;;4.71;63.75;101583.58;1817176;79;21465;-77
2020/12/04 04:24:53;;;;;;;44.95;21.42;;;;;;;4.72;63.68;101580.45;1816955;79;21164;-76
2020/12/04 04:27:21;;;;;;;52.40;25.97;;;;;;;4.74;63.62;101582.55;1817131;79;22395;-76
2020/12/04 04:29:50;;;;;;;56.33;26.52;;;;;;;4.69;63.50;101582.83;1816507;79;21619;-76
2020/12/04 04:32:17;;;;;;;48.10;18.57;;;;;;;4.66;63.63;101594.10;1815848;79;21180;-76
2020/12/04 04:34:45;;;;;;;57.40;26.82;;;;;;;4.66;63.55;101584.34;1815977;79;21151;-75
2020/12/04 04:37:14;;;;;;;60.58;27.40;;;;;;;4.68;63.58;101590.87;1816663;79;21176;-77
2020/12/04 04:39:43;;;;;;;60.28;26.93;;;;;;;4.66;63.53;101587.47;1816435;79;21773;-76
2020/12/04 04:42:10;;;;;;;64.67;27.37;;;;;;;4.66;63.55;101596.28;1816464;79;21208;-77
2020/12/04 04:44:40;;;;;;;56.85;25.27;;;;;;;4.64;63.46;101601.31;1816705;79;21065;-77
2020/12/04 04:47:18;;;;;;;39.18;16.85;;;;;;;4.55;63.49;101612.85;1817947;78;21068;-77
2020/12/04 04:49:51;;;;;;;57.48;25.35;;;;;;;4.48;63.57;101608.84;1817714;79;21061;-78
2020/12/04 04:52:19;;;;;;;72.50;28.90;;;;;;;4.38;63.67;101605.03;1815400;77;22233;-79
2020/12/04 04:54:49;;;;;;;68.40;28.47;;;;;;;4.39;63.78;101601.42;1803163;77;21116;-79
2020/12/04 04:57:22;;;;;;;69.70;28.42;;;;;;;4.37;63.80;101600.67;1792203;79;21579;-79
2020/12/04 04:59:53;;;;;;;63.25;31.15;;;;;;;4.39;63.86;101597.45;1797930;79;21164;-79
2020/12/04 05:02:22;;;;;;;62.75;29.27;;;;;;;4.40;63.90;101603.13;1816039;79;21698;-80
2020/12/04 05:04:55;;;;;;;60.30;27.45;;;;;;;4.45;63.94;101595.78;1815800;79;21439;-76
2020/12/04 05:07:33;;;;;;;56.65;27.70;;;;;;;4.53;63.90;101606.77;1814050;79;21171;-78
2020/12/04 05:10:15;;;;;;;63.42;28.57;;;;;;;4.64;63.79;101598.66;1792594;79;21188;-77
2020/12/04 05:12:44;;;;;;;47.38;22.58;;;;;;;4.69;63.53;101602.73;1790045;79;21044;-78
2020/12/04 05:15:26;;;;;;;61.18;25.40;;;;;;;4.64;63.30;101606.63;1795833;77;21143;-78
2020/12/04 05:18:10;;;;;;;48.38;22.35;;;;;;;4.51;63.26;101604.69;1785635;77;21356;-79
2020/12/04 05:20:53;;;;;;;58.13;26.02;;;;;;;4.54;63.32;101603.19;1832060;77;22797;-79
2020/12/04 05:23:27;;;;;;;60.30;26.97;;;;;;;4.45;63.25;101618.77;1788428;77;21076;-78
2020/12/04 05:25:55;;;;;;;60.83;28.02;;;;;;;4.37;63.32;101614.42;1791426;77;21194;-79
2020/12/04 05:28:29;;;;;;;62.27;27.52;;;;;;;4.39;63.32;101623.13;1790287;79;21400;-80
2020/12/04 05:31:10;;;;;;;58.70;26.30;;;;;;;4.39;63.31;101628.43;1812138;77;21100;-80
2020/12/04 05:33:44;;;;;;;76.17;32.40;;;;;;;4.35;63.38;101637.03;1791646;79;21574;-79
2020/12/04 05:36:26;;;;;;;87.65;39.15;;;;;;;4.35;63.45;101633.05;1817703;79;21049;-78
2020/12/04 05:38:55;;;;;;;81.42;38.42;;;;;;;4.38;63.44;101632.88;1815005;79;21460;-77
2020/12/04 05:41:24;;;;;;;60.50;25.88;;;;;;;4.35;63.35;101642.34;1817171;79;21084;-77
2020/12/04 05:43:54;;;;;;;60.70;28.67;;;;;;;4.22;63.41;101626.75;1786338;79;21144;-78
2020/12/04 05:46:24;;;;;;;51.23;25.72;;;;;;;4.16;63.57;101637.72;1812036;77;21132;-77
2020/12/04 05:49:08;;;;;;;50.75;26.80;;;;;;;4.20;63.67;101631.30;1803099;79;21089;-78
2020/12/04 05:51:37;;;;;;;57.50;28.65;;;;;;;4.25;63.65;101633.21;1816705;79;21426;-79
2020/12/04 05:54:07;;;;;;;41.77;21.48;;;;;;;4.27;63.61;101629.54;1799842;79;21120;-77
2020/12/04 05:56:35;;;;;;;58.83;26.33;;;;;;;4.34;63.66;101640.63;1785097;80;21092;-79
2020/12/04 05:59:12;;;;;;;61.13;26.52;;;;;;;4.38;63.51;101636.86;1793508;77;21128;-80
2020/12/04 06:01:46;;;;;;;57.13;25.85;;;;;;;4.42;63.38;101638.39;1805124;78;21159;-79
2020/12/04 06:04:18;;;;;;;44.80;20.52;;;;;;;4.43;63.20;101641.42;1811920;78;21351;-78
2020/12/04 06:06:48;;;;;;;63.10;29.25;;;;;;;4.38;63.16;101649.27;1801710;77;21128;-78
2020/12/04 06:09:20;;;;;;;62.55;27.07;;;;;;;4.30;63.24;101641.27;1760929;79;21120;-75
2020/12/04 06:11:50;;;;;;;54.18;24.60;;;;;;;4.41;63.04;101655.27;1764576;78;21090;-78
2020/12/04 06:14:20;;;;;;;63.52;29.37;;;;;;;4.91;61.83;101658.05;1789886;79;21188;-76
2020/12/04 06:17:08;;;;;;;67.60;30.30;;;;;;;5.01;61.37;101656.55;1792198;79;22477;-77
2020/12/04 06:19:41;;;;;;;72.32;34.83;;;;;;;4.57;62.26;101660.03;1790527;77;21639;-76
2020/12/04 06:22:13;;;;;;;69.15;33.35;;;;;;;4.45;62.73;101656.80;1795716;77;21148;-78
2020/12/04 06:24:59;;;;;;;59.80;25.57;;;;;;;4.46;62.81;101658.50;1795652;77;21088;-77
2020/12/04 06:27:48;;;;;;;59.25;27.98;;;;;;;4.62;62.51;101661.57;1800888;79;21611;-78
2020/12/04 06:30:16;;;;;;;52.60;25.85;;;;;;;5.19;61.21;101657.70;1793703;78;21381;-79
2020/12/04 06:32:50;;;;;;;50.60;25.12;;;;;;;5.33;60.61;101655.05;1797844;77;21100;-76
2020/12/04 06:35:43;;;;;;;53.15;26.70;;;;;;;5.40;60.24;101656.35;1798085;79;21101;-79
2020/12/04 06:38:40;;;;;;;62.65;28.15;;;;;;;5.47;60.05;101656.84;1794395;79;21104;-78
2020/12/04 06:41:35;;;;;;;60.85;26.27;;;;;;;5.54;59.81;101658.14;1794530;77;21089;-79
2020/12/04 06:44:18;;;;;;;73.28;33.05;;;;;;;5.57;59.56;101655.30;1799925;77;21378;-78
2020/12/04 06:47:00;;;;;;;68.20;30.95;;;;;;;5.57;59.55;101655.30;1784731;77;21112;-77
2020/12/04 06:49:38;;;;;;;54.60;26.00;;;;;;;5.64;59.42;101656.64;1802612;79;21121;-79
2020/12/04 06:52:14;;;;;;;59.23;29.67;;;;;;;5.65;59.15;101662.33;1799219;77;21109;-78
2020/12/04 06:54:47;;;;;;;74.20;31.90;;;;;;;5.61;59.10;101663.47;1795678;77;21866;-78
2020/12/04 06:57:21;;;;;;;65.35;29.27;;;;;;;5.54;59.16;101674.09;1793932;77;22531;-77
2020/12/04 06:59:52;;;;;;;66.30;30.35;;;;;;;5.49;59.22;101662.42;1802557;77;21134;-78
2020/12/04 07:02:21;;;;;;;52.03;23.98;;;;;;;5.45;59.33;101665.36;1799485;77;21116;-78
2020/12/04 07:04:53;;;;;;;54.88;24.90;;;;;;;5.40;59.37;101662.99;1802530;77;21100;-78
2020/12/04 07:07:26;;;;;;;74.22;33.40;;;;;;;5.33;59.49;101671.83;1751091;79;21131;-78
2020/12/04 07:10:03;;;;;;;76.28;33.08;;;;;;;5.27;59.64;101673.55;1799178;79;21343;-79
2020/12/04 07:12:31;;;;;;;65.52;30.02;;;;;;;5.22;59.88;101673.42;1807015;79;21501;-80
2020/12/04 07:15:00;;;;;;;62.17;25.65;;;;;;;5.27;59.84;101669.56;1800048;79;21137;-81
2020/12/04 07:17:29;;;;;;;67.85;33.02;;;;;;;5.31;59.85;101675.08;1803302;77;21104;-78
2020/12/04 07:20:02;;;;;;;61.83;28.00;;;;;;;5.33;59.86;101671.83;1801996;77;21125;-78
2020/12/04 07:22:27;;;;;;;52.20;24.30;;;;;;;5.41;59.79;101679.34;1790485;79;21364;-79
2020/12/04 07:24:56;;;;;;;50.35;22.67;;;;;;;5.44;59.61;101676.95;1798737;77;21499;-77
2020/12/04 07:27:28;;;;;;;56.10;27.10;;;;;;;5.38;59.42;101683.98;1795800;79;21099;-77
2020/12/04 07:29:56;;;;;;;52.50;24.05;;;;;;;5.29;59.46;101685.40;1796132;77;21102;-79
2020/12/04 07:32:25;;;;;;;47.13;22.70;;;;;;;5.25;59.50;101688.70;1800416;77;21112;-77
2020/12/04 07:34:55;;;;;;;47.90;23.60;;;;;;;5.29;59.51;101685.40;1800154;79;21567;-76
2020/12/04 07:37:28;;;;;;;53.58;25.68;;;;;;;5.37;59.47;101682.28;1804725;78;21156;-78
2020/12/04 07:39:56;;;;;;;52.15;24.45;;;;;;;5.36;59.28;101682.76;1795969;77;21103;-78
2020/12/04 07:42:24;;;;;;;53.50;26.90;;;;;;;5.35;59.29;101685.86;1795073;77;21096;-78
2020/12/04 07:44:56;;;;;;;48.85;23.15;;;;;;;5.39;59.12;101690.52;1803275;77;21092;-78
2020/12/04 07:47:25;;;;;;;46.23;22.02;;;;;;;5.37;59.11;101690.25;1815029;78;22244;-77
2020/12/04 07:49:54;;;;;;;48.13;23.90;;;;;;;5.38;59.04;101694.13;1797377;77;21145;-79
2020/12/04 07:52:25;;;;;;;53.98;25.05;;;;;;;5.35;59.08;101697.81;1783944;79;21116;-77
2020/12/04 07:55:01;;;;;;;47.65;24.98;;;;;;;5.34;59.11;101684.16;1792535;77;21081;-77
2020/12/04 07:57:33;;;;;;;52.03;25.90;;;;;;;5.37;59.02;101689.77;1799328;77;21084;-77
2020/12/04 08:00:01;;;;;;;57.33;27.62;;;;;;;5.33;59.03;101687.77;1798771;77;21428;-77
2020/12/04 08:02:31;;;;;;;53.48;25.32;;;;;;;5.33;59.11;101682.94;1790662;79;21132;-77
2020/12/04 08:05:01;;;;;;;46.20;22.35;;;;;;;5.30;59.08;101673.34;1794980;79;21123;-78
2020/12/04 08:07:31;;;;;;;39.40;19.52;;;;;;;5.32;59.17;101679.91;1784268;77;21104;-77
2020/12/04 08:09:59;;;;;;;45.80;24.10;;;;;;;5.34;59.00;101678.00;1798115;79;21733;-77
2020/12/04 08:12:30;;;;;;;47.10;22.70;;;;;;;5.33;59.01;101670.98;1799198;77;21369;-77
2020/12/04 08:15:01;;;;;;;45.78;21.50;;;;;;;5.36;59.01;101681.44;1808849;77;21171;-78
2020/12/04 08:17:30;;;;;;;38.92;19.23;;;;;;;5.42;58.92;101662.44;1799338;77;21089;-78
2020/12/04 08:20:01;;;;;;;39.30;17.65;;;;;;;5.45;58.82;101666.25;1804254;77;21132;-78
2020/12/04 08:22:33;;;;;;;51.33;25.68;;;;;;;5.42;58.70;101666.42;1801924;77;21101;-79
2020/12/04 08:25:11;;;;;;;38.33;19.23;;;;;;;5.39;58.86;101679.89;1809870;77;22272;-79
2020/12/04 08:27:44;;;;;;;48.00;24.50;;;;;;;5.40;58.82;101684.25;1795466;77;21591;-78
2020/12/04 08:30:17;;;;;;;47.55;24.82;;;;;;;5.43;58.66;101685.88;1792697;79;21116;-77
2020/12/04 08:32:57;;;;;;;37.78;20.37;;;;;;;5.47;58.51;101688.73;1801103;77;21104;-77
2020/12/04 08:35:34;;;;;;;41.48;20.25;;;;;;;5.49;58.41;101683.67;1798336;78;21065;-78
2020/12/04 08:38:15;;;;;;;43.98;19.00;;;;;;;5.45;58.24;101682.64;1808717;77;21195;-78
2020/12/04 08:40:55;;;;;;;37.28;19.15;;;;;;;5.43;58.23;101683.22;1790316;78;21090;-77
2020/12/04 08:43:24;;;;;;;38.08;19.42;;;;;;;5.42;58.27;101677.05;1785928;79;21124;-79
2020/12/04 08:45:55;;;;;;;39.95;19.77;;;;;;;5.48;58.23;101663.86;1800468;79;21078;-78
2020/12/04 08:48:26;;;;;;;41.18;21.57;;;;;;;5.55;58.23;101674.02;1793072;77;21096;-78
2020/12/04 08:51:02;;;;;;;50.55;23.65;;;;;;;5.59;58.19;101673.36;1794828;77;21378;-79
2020/12/04 08:53:32;;;;;;;37.95;18.42;;;;;;;5.59;57.89;101661.39;1815136;77;21584;-78
2020/12/04 08:56:03;;;;;;;39.20;20.40;;;;;;;5.58;57.94;101669.81;1808520;77;21547;-78
2020/12/04 08:58:31;;;;;;;35.43;18.07;;;;;;;5.57;57.84;101664.61;1799861;77;21108;-79
2020/12/04 09:00:59;;;;;;;43.60;22.67;;;;;;;5.54;57.79;101663.02;1798026;79;21125;-78
2020/12/04 09:03:27;;;;;;;44.10;23.50;;;;;;;5.47;57.88;101663.00;1798790;79;21607;-78
2020/12/04 09:05:56;;;;;;;46.73;24.40;;;;;;;5.45;58.02;101659.60;1803952;77;21167;-78
2020/12/04 09:08:24;;;;;;;41.48;19.73;;;;;;;5.41;58.24;101662.07;1815076;77;21638;-79
2020/12/04 09:10:52;;;;;;;48.70;24.23;;;;;;;5.43;58.38;101672.11;1800460;77;21101;-77
2020/12/04 09:13:20;;;;;;;49.25;23.80;;;;;;;5.49;58.44;101666.88;1803126;77;21090;-77
2020/12/04 09:15:48;;;;;;;47.17;24.37;;;;;;;5.49;58.35;101665.08;1797545;77;21468;-78
2020/12/04 09:18:16;;;;;;;44.53;22.75;;;;;;;5.45;58.42;101660.93;1800101;79;21103;-77
2020/12/04 09:20:44;;;;;;;37.65;18.80;;;;;;;5.48;58.44;101664.70;1799835;79;21622;-80
2020/12/04 09:23:17;;;;;;;43.78;21.73;;;;;;;5.65;58.04;101654.83;1797971;77;21120;-79
2020/12/04 09:25:45;;;;;;;36.30;19.42;;;;;;;5.56;58.09;101663.76;1803077;77;21092;-79
2020/12/04 09:28:15;;;;;;;34.88;19.07;;;;;;;5.48;58.22;101658.06;1792747;77;21209;-78
2020/12/04 09:30:45;;;;;;;43.58;22.15;;;;;;;5.45;58.17;101655.62;1795590;79;21125;-79
2020/12/04 09:33:13;;;;;;;38.50;21.15;;;;;;;5.35;58.39;101662.42;1800025;79;21615;-79
2020/12/04 09:35:41;;;;;;;35.45;19.25;;;;;;;5.36;58.56;101654.86;1797896;77;21116;-78
2020/12/04 09:38:08;;;;;;;46.05;20.05;;;;;;;5.42;58.42;101654.95;1795738;77;21124;-77
2020/12/04 09:40:36;;;;;;;31.57;17.95;;;;;;;5.42;58.42;101659.78;1794894;78;21376;-77
2020/12/04 09:43:05;;;;;;;36.98;21.17;;;;;;;5.50;58.33;101654.85;1797628;77;21104;-79
2020/12/04 09:45:34;;;;;;;43.33;22.37;;;;;;;5.46;58.39;101659.12;1796198;77;21489;-79
2020/12/04 09:48:02;;;;;;;32.85;16.57;;;;;;;5.50;58.38;101657.98;1797350;77;21329;-78
2020/12/04 09:50:30;;;;;;;36.17;21.30;;;;;;;5.57;58.36;101653.50;1768679;79;21088;-79
2020/12/04 09:52:58;;;;;;;59.63;31.85;;;;;;;5.54;58.25;101664.34;1797119;77;22746;-78
2020/12/04 09:55:28;;;;;;;55.83;30.52;;;;;;;5.55;58.27;101660.73;1795475;79;21110;-77
2020/12/04 09:57:56;;;;;;;46.68;24.12;;;;;;;5.59;58.21;101671.55;1798610;77;21516;-79
2020/12/04 10:00:24;;;;;;;58.15;29.15;;;;;;;5.62;58.09;101670.48;1785617;79;21101;-76
2020/12/04 10:02:54;;;;;;;62.08;34.53;;;;;;;5.65;58.00;101669.45;1789123;80;21081;-77
2020/12/04 10:05:21;;;;;;;64.47;33.98;;;;;;;5.70;57.98;101675.33;1800067;79;22118;-79
2020/12/04 10:07:50;;;;;;;62.53;30.90;;;;;;;5.74;57.85;101672.38;1792126;77;21154;-79
2020/12/04 10:10:20;;;;;;;63.15;33.60;;;;;;;5.80;57.79;101678.63;1808232;77;21107;-79
2020/12/04 10:12:48;;;;;;;58.42;31.82;;;;;;;5.90;57.59;101677.55;1798172;77;21137;-78
2020/12/04 10:15:17;;;;;;;55.23;29.85;;;;;;;5.97;57.32;101671.42;1787896;78;21085;-79
2020/12/04 10:17:45;;;;;;;57.33;31.23;;;;;;;6.02;57.26;101678.14;1795214;77;22158;-79
2020/12/04 10:20:15;;;;;;;41.10;23.07;;;;;;;6.07;57.01;101677.36;1796472;77;21100;-79
2020/12/04 10:22:43;;;;;;;36.17;19.92;;;;;;;6.04;56.78;101674.92;1801983;79;21084;-79
2020/12/04 10:25:11;;;;;;;38.70;21.45;;;;;;;6.01;56.47;101665.80;1801859;78;21088;-78
2020/12/04 10:27:39;;;;;;;28.80;16.65;;;;;;;5.91;56.50;101666.47;1811176;77;21088;-79
2020/12/04 10:30:07;;;;;;;31.50;18.25;;;;;;;5.83;56.63;101669.61;1806120;78;21176;-78
2020/12/04 10:32:35;;;;;;;35.05;17.95;;;;;;;5.77;56.72;101670.02;1803716;78;21113;-78
2020/12/04 10:35:03;;;;;;;22.48;14.73;;;;;;;5.72;56.85;101675.62;1792273;78;21460;-79
2020/12/04 10:37:32;;;;;;;31.37;17.10;;;;;;;5.72;56.83;101668.97;1816120;77;21099;-79
2020/12/04 10:39:59;;;;;;;34.95;19.30;;;;;;;5.69;56.84;101653.69;1806209;77;21157;-78
2020/12/04 10:42:29;;;;;;;34.88;17.32;;;;;;;5.66;56.89;101664.03;1790031;78;21227;-80
2020/12/04 10:44:57;;;;;;;34.20;18.15;;;;;;;5.65;56.88;101662.33;1799830;78;21138;-78
2020/12/04 10:47:25;;;;;;;33.30;16.07;;;;;;;5.64;56.86;101650.47;1784561;79;21093;-79
2020/12/04 10:49:55;;;;;;;28.90;16.80;;;;;;;5.65;56.89;101661.48;1803706;77;21431;-79
2020/12/04 10:52:24;;;;;;;36.48;19.87;;;;;;;5.63;56.90;101658.05;1797448;78;21120;-79
2020/12/04 10:54:52;;;;;;;36.20;20.00;;;;;;;5.58;57.05;101657.86;1805635;77;21372;-78
2020/12/04 10:57:20;;;;;;;37.67;20.32;;;;;;;5.58;57.18;101651.69;1809927;77;21129;-79
2020/12/04 10:59:48;;;;;;;33.55;16.97;;;;;;;4.98;58.59;101654.54;1797697;77;21204;-78
2020/12/04 11:02:34;;;;;;;27.42;15.38;;;;;;;4.80;59.32;101656.02;1797968;77;21108;-78
2020/12/04 11:07:53;;;;;;;27.65;15.90;;;;;;;5.57;57.92;101652.65;1803992;79;21353;-82
2020/12/04 11:10:20;;;;;;;32.25;17.57;;;;;;;5.68;57.48;101662.59;1797502;79;21116;-80
2020/12/04 11:12:48;;;;;;;28.70;16.20;;;;;;;5.68;57.36;101669.23;1801480;77;21096;-78
2020/12/04 11:15:16;;;;;;;31.95;17.77;;;;;;;5.65;57.42;101660.14;1795237;77;21124;-79
2020/12/04 11:17:44;;;;;;;33.20;18.52;;;;;;;5.66;57.18;101653.87;1797578;77;21073;-79
2020/12/04 11:20:15;;;;;;;32.75;18.02;;;;;;;5.69;57.17;101653.69;1792581;77;21365;-79
2020/12/04 11:22:43;;;;;;;32.13;17.50;;;;;;;5.75;57.13;101654.14;1799214;78;21124;-79
2020/12/04 11:25:12;;;;;;;34.67;18.27;;;;;;;5.82;56.86;101658.61;1789888;79;21453;-80
2020/12/04 11:27:45;;;;;;;33.53;18.87;;;;;;;5.82;56.76;101659.94;1795842;77;21127;-78
2020/12/04 11:30:15;;;;;;;37.25;17.82;;;;;;;5.83;56.75;101657.64;1788351;79;21440;-79
2020/12/04 11:32:46;;;;;;;29.50;16.75;;;;;;;5.83;56.68;101651.84;1798011;77;21324;-79
2020/12/04 11:35:15;;;;;;;26.48;14.95;;;;;;;5.83;56.77;101637.23;1796038;79;21105;-77